Terminal Aerodrome Forecast
Issued by NWS

Home | Current Version | Previous Version | Graphics & Text | Print | Product List | Glossary On
Versions: 1 2 3 4 5 6 7 8 9 10 11 12 13 14 15 16 17 18 19 20 21 22
942
FTUS43 KABR 262303 AAA
TAFATY
TAF AMD
KATY 262303Z 2623/2718 35004KT P6SM FEW019 OVC100
     FM270300 VRB03KT 5SM BR OVC008
     FM270600 VRB03KT 2SM BR OVC005
     FM271500 06005KT P6SM OVC009=

USA.gov is the U.S. government's official web portal to all federal, state and local government web resources and services.